Terminal Aerodrome Forecast
Issued by NWS

Home | Current Version | Previous Version | Text Only | Print | Product List | Glossary On
Versions: 1 2 3 4 5 6 7 8 9 10 11 12 13 14 15 16 17 18 19 20 21 22 23 24 25
000
FTUS42 KCAE 220300 AAA
TAFOGB
TAF AMD
KOGB 220305Z 2203/2224 VRB03KT P6SM SKC
     FM221400 06006KT P6SM SCT250
     FM221900 07007KT P6SM SCT060=

USA.gov is the U.S. government's official web portal to all federal, state and local government web resources and services.